Time;durP1;ratioP1;P1;durP2;ratioP2;P2;SDS_P1;SDS_P2;PMS_P1;PMS_P2;Temp;Humidity;BMP_temperature;BMP_pressure;BME280_temperature;BME280_humidity;BME280_pressure;Samples;Min_cycle;Max_cycle;Signal;HPM_P1;HPM_P2
2021/01/12 00:00:20;;;;;;;14.70;2.03;;;6.90;99.90;;;;;;5054292;28;20531;-75
2021/01/12 00:02:46;;;;;;;6.55;1.42;;;6.90;99.90;;;;;;5074264;28;20024;-75
2021/01/12 00:05:12;;;;;;;8.65;1.27;;;6.90;99.90;;;;;;5074136;28;20055;-75
2021/01/12 00:07:38;;;;;;;7.68;1.25;;;6.90;99.90;;;;;;5074157;28;20052;-75
2021/01/12 00:10:06;;;;;;;9.30;1.60;;;6.90;99.90;;;;;;5074189;28;20388;-76
2021/01/12 00:12:33;;;;;;;7.82;2.00;;;6.90;99.90;;;;;;5073941;28;20024;-76
2021/01/12 00:14:59;;;;;;;7.38;1.23;;;6.90;99.90;;;;;;5073829;28;20013;-76
2021/01/12 00:17:24;;;;;;;8.88;1.13;;;6.90;99.90;;;;;;5074062;28;20020;-76
2021/01/12 00:19:51;;;;;;;6.47;1.20;;;6.90;99.90;;;;;;5073940;28;20020;-75
2021/01/12 00:22:18;;;;;;;6.28;0.93;;;6.90;99.90;;;;;;5074224;28;20031;-76
2021/01/12 00:24:45;;;;;;;9.55;0.85;;;6.90;99.90;;;;;;5078262;28;20046;-75
2021/01/12 00:27:16;;;;;;;3.58;0.57;;;6.90;99.90;;;;;;5078351;28;20411;-75
2021/01/12 00:29:42;;;;;;;2.95;0.80;;;6.80;99.90;;;;;;5043774;28;20501;-75
2021/01/12 00:32:08;;;;;;;7.20;1.30;;;6.80;99.90;;;;;;5040447;28;20025;-76
2021/01/12 00:34:34;;;;;;;4.63;0.95;;;6.80;99.90;;;;;;5040964;28;20412;-76
2021/01/12 00:37:00;;;;;;;3.05;1.25;;;6.80;99.90;;;;;;5057895;28;20032;-76
2021/01/12 00:39:26;;;;;;;8.52;1.17;;;6.80;99.90;;;;;;5057494;28;20021;-75
2021/01/12 00:41:54;;;;;;;6.95;1.73;;;6.80;99.90;;;;;;5058038;28;20134;-75
2021/01/12 00:44:21;;;;;;;7.70;0.90;;;6.80;99.90;;;;;;5058014;28;20143;-75
2021/01/12 00:46:47;;;;;;;6.60;1.08;;;6.90;99.90;;;;;;5039811;28;20025;-75
2021/01/12 00:49:15;;;;;;;7.18;0.77;;;6.90;99.90;;;;;;5039912;28;20397;-75
2021/01/12 00:51:41;;;;;;;4.10;1.02;;;6.80;99.90;;;;;;5072628;28;20032;-75
2021/01/12 00:54:12;;;;;;;2.95;1.05;;;6.80;99.90;;;;;;5059752;28;20013;-75
2021/01/12 00:56:38;;;;;;;8.15;1.58;;;6.80;99.90;;;;;;5077631;28;20075;-75
2021/01/12 00:59:04;;;;;;;7.93;1.83;;;6.90;99.90;;;;;;5058950;28;20016;-75
2021/01/12 01:01:31;;;;;;;6.00;0.65;;;6.80;99.90;;;;;;5077958;28;20078;-75
2021/01/12 01:03:56;;;;;;;7.25;0.95;;;6.80;99.90;;;;;;5077871;28;20075;-74
2021/01/12 01:06:23;;;;;;;3.50;0.93;;;6.80;99.90;;;;;;5077856;28;20373;-74
2021/01/12 01:08:49;;;;;;;8.20;1.77;;;6.90;99.90;;;;;;5069891;28;20029;-74
2021/01/12 01:11:15;;;;;;;3.90;1.05;;;6.80;99.90;;;;;;5057725;28;20097;-75
2021/01/12 01:13:40;;;;;;;3.35;0.90;;;6.90;99.90;;;;;;5039847;28;20024;-74
2021/01/12 01:16:06;;;;;;;5.72;1.48;;;6.90;99.90;;;;;;5057164;28;20028;-74
2021/01/12 01:18:32;;;;;;;9.48;1.90;;;6.80;99.90;;;;;;5039284;28;20067;-74
2021/01/12 01:20:58;;;;;;;3.47;1.38;;;6.80;99.90;;;;;;5039522;28;20366;-75
2021/01/12 01:23:24;;;;;;;9.23;1.27;;;6.80;99.90;;;;;;5039208;28;20116;-74
2021/01/12 01:25:51;;;;;;;8.45;1.02;;;6.90;99.90;;;;;;5057060;28;20021;-75
2021/01/12 01:28:19;;;;;;;5.55;1.45;;;6.90;99.90;;;;;;5039581;28;20456;-75
2021/01/12 01:30:44;;;;;;;5.60;1.33;;;6.90;99.90;;;;;;5039075;28;20021;-75
2021/01/12 01:33:10;;;;;;;8.32;1.70;;;6.90;99.90;;;;;;5057150;28;20075;-74
2021/01/12 01:35:36;;;;;;;6.13;0.93;;;6.90;99.90;;;;;;5039007;28;20025;-74
2021/01/12 01:38:01;;;;;;;12.63;1.83;;;6.90;99.90;;;;;;5038669;28;20021;-74
2021/01/12 01:40:29;;;;;;;4.22;1.10;;;7.00;99.90;;;;;;5039112;28;20029;-74
2021/01/12 01:42:55;;;;;;;8.85;1.10;;;6.90;99.90;;;;;;5056840;28;20028;-75
2021/01/12 01:45:22;;;;;;;9.18;1.75;;;7.00;99.90;;;;;;5057064;28;20025;-74
2021/01/12 01:47:48;;;;;;;7.80;1.40;;;6.90;99.90;;;;;;5049625;28;20083;-74
2021/01/12 01:50:15;;;;;;;6.22;1.52;;;7.00;99.90;;;;;;5076573;28;20036;-75
2021/01/12 01:52:44;;;;;;;7.90;1.30;;;7.00;99.90;;;;;;5058710;28;20086;-74
2021/01/12 01:55:12;;;;;;;12.52;1.73;;;7.00;99.90;;;;;;5056637;28;20384;-74
2021/01/12 01:57:38;;;;;;;8.40;2.13;;;7.00;99.90;;;;;;5056462;28;20028;-75
2021/01/12 02:00:08;;;;;;;6.28;1.63;;;7.00;99.90;;;;;;5056438;28;20020;-75
2021/01/12 02:03:05;;;;;;;8.15;2.58;;;7.00;99.90;;;;;;5076212;28;20020;-75
2021/01/12 02:05:34;;;;;;;8.15;2.15;;;7.00;99.90;;;;;;5053589;28;20047;-75
2021/01/12 02:08:05;;;;;;;3.85;1.48;;;7.00;99.90;;;;;;5038313;28;20017;-74
2021/01/12 02:10:37;;;;;;;6.38;2.38;;;7.10;99.90;;;;;;5056039;28;20155;-75
2021/01/12 02:13:06;;;;;;;7.65;2.13;;;7.00;99.90;;;;;;5055912;28;20393;-75
2021/01/12 02:15:33;;;;;;;6.97;2.05;;;7.00;99.90;;;;;;5056468;28;20048;-75
2021/01/12 02:17:59;;;;;;;6.03;2.22;;;7.10;99.90;;;;;;5038447;28;20036;-74
2021/01/12 02:20:28;;;;;;;10.13;2.30;;;7.20;99.90;;;;;;5038484;28;20027;-74
2021/01/12 02:23:09;;;;;;;9.45;1.88;;;7.10;99.90;;;;;;5038232;28;20436;-74
2021/01/12 02:25:36;;;;;;;10.70;2.70;;;7.20;99.90;;;;;;5038343;28;20029;-74
2021/01/12 02:28:10;;;;;;;10.70;2.47;;;7.20;99.90;;;;;;5038298;28;20039;-74
2021/01/12 02:30:36;;;;;;;10.38;2.53;;;7.30;99.90;;;;;;5055704;28;20037;-74
2021/01/12 02:33:03;;;;;;;6.72;2.25;;;7.30;99.90;;;;;;5056041;28;20033;-75
2021/01/12 02:35:31;;;;;;;7.80;1.98;;;7.40;99.90;;;;;;5038476;28;20112;-75
2021/01/12 02:37:57;;;;;;;7.80;2.33;;;7.40;99.90;;;;;;5038012;28;20017;-74
2021/01/12 02:40:24;;;;;;;10.82;2.10;;;7.40;99.90;;;;;;5038050;28;20480;-75
2021/01/12 02:42:50;;;;;;;10.00;1.95;;;7.40;99.90;;;;;;5039123;28;20036;-75
2021/01/12 02:45:16;;;;;;;6.93;2.33;;;7.50;99.90;;;;;;5055160;28;20126;-74
2021/01/12 02:47:42;;;;;;;12.15;2.22;;;7.40;99.90;;;;;;5037914;28;20029;-74
2021/01/12 02:50:11;;;;;;;8.35;1.35;;;7.50;99.90;;;;;;5055392;28;20100;-74
2021/01/12 02:52:38;;;;;;;8.77;1.85;;;7.50;99.90;;;;;;5037454;28;20025;-74
2021/01/12 02:55:04;;;;;;;13.65;3.38;;;7.50;99.90;;;;;;5055617;28;20428;-74
2021/01/12 02:57:30;;;;;;;8.15;1.42;;;7.50;99.90;;;;;;5055457;28;20029;-75
2021/01/12 02:59:55;;;;;;;13.18;1.45;;;7.50;99.90;;;;;;5055194;28;20028;-74
2021/01/12 03:02:21;;;;;;;14.95;1.90;;;7.60;99.90;;;;;;5055527;28;20032;-75
2021/01/12 03:04:58;;;;;;;6.25;1.10;;;7.70;99.90;;;;;;5037175;28;20354;-75
2021/01/12 03:07:24;;;;;;;6.13;0.98;;;7.70;99.90;;;;;;5055471;28;20017;-75
2021/01/12 03:09:49;;;;;;;6.90;1.27;;;7.80;99.90;;;;;;5055196;28;20358;-74
2021/01/12 03:12:15;;;;;;;5.28;0.50;;;7.80;99.90;;;;;;5054979;28;20033;-75
2021/01/12 03:14:42;;;;;;;6.63;2.15;;;7.80;99.90;;;;;;5054858;28;20473;-75
2021/01/12 03:17:13;;;;;;;6.18;0.30;;;7.80;99.90;;;;;;5055164;28;20032;-75
2021/01/12 03:19:39;;;;;;;7.40;0.65;;;7.90;99.90;;;;;;5055351;28;20024;-75
2021/01/12 03:22:04;;;;;;;5.88;0.43;;;7.90;99.90;;;;;;5055424;28;20110;-75
2021/01/12 03:24:30;;;;;;;5.50;0.57;;;7.90;99.90;;;;;;5036529;28;20481;-75
2021/01/12 03:26:56;;;;;;;6.32;0.15;;;7.90;99.90;;;;;;5054939;28;20032;-76
2021/01/12 03:29:22;;;;;;;8.05;0.55;;;7.90;99.90;;;;;;5054273;28;20481;-75
2021/01/12 03:31:47;;;;;;;5.68;0.22;;;7.90;99.90;;;;;;5055003;28;20028;-75
2021/01/12 03:34:13;;;;;;;4.97;0.17;;;7.90;99.90;;;;;;5054711;28;20485;-76
2021/01/12 03:36:38;;;;;;;4.50;0.25;;;7.90;99.90;;;;;;5037003;28;20025;-76
2021/01/12 03:39:04;;;;;;;4.90;0.10;;;7.90;99.90;;;;;;5036898;28;20047;-76
2021/01/12 03:41:31;;;;;;;6.90;0.80;;;7.80;99.90;;;;;;5062593;28;20465;-75
2021/01/12 03:43:57;;;;;;;5.82;0.47;;;7.80;99.90;;;;;;5056768;28;20392;-76
2021/01/12 03:46:23;;;;;;;4.45;0.43;;;7.80;99.90;;;;;;5074562;28;20362;-76
2021/01/12 03:48:51;;;;;;;8.32;1.17;;;7.80;99.90;;;;;;5074456;28;20112;-76
2021/01/12 03:51:19;;;;;;;4.85;0.88;;;7.80;99.90;;;;;;5055964;28;20459;-76
2021/01/12 03:53:44;;;;;;;4.60;0.82;;;7.80;99.90;;;;;;5074216;28;20099;-76
2021/01/12 03:56:13;;;;;;;4.90;0.65;;;7.80;99.90;;;;;;5074032;28;20178;-75
2021/01/12 03:58:39;;;;;;;;;;;7.80;99.90;;;;;;5072858;28;20052;-75
2021/01/12 04:01:05;;;;;;;3.05;0.98;;;7.80;99.90;;;;;;5074039;28;20312;-75
2021/01/12 04:03:30;;;;;;;3.65;1.15;;;7.90;99.90;;;;;;5073908;28;20028;-75
2021/01/12 04:05:56;;;;;;;9.07;1.38;;;7.90;99.90;;;;;;5073995;28;20028;-75
2021/01/12 04:08:21;;;;;;;3.88;0.88;;;7.90;99.90;;;;;;5073520;28;20032;-75
2021/01/12 04:10:47;;;;;;;3.42;0.85;;;7.80;99.90;;;;;;5073498;28;20043;-75
2021/01/12 04:13:12;;;;;;;4.22;0.52;;;7.80;99.90;;;;;;5073831;28;20021;-75
2021/01/12 04:15:38;;;;;;;2.88;0.20;;;7.90;99.90;;;;;;5073603;28;20028;-76
2021/01/12 04:18:03;;;;;;;4.75;0.10;;;8.00;99.90;;;;;;5074079;28;20021;-76
2021/01/12 04:20:31;;;;;;;4.22;0.10;;;7.90;99.90;;;;;;5071509;28;20032;-75
2021/01/12 04:22:56;;;;;;;3.08;0.00;;;8.00;99.90;;;;;;5053930;28;20028;-75
2021/01/12 04:25:22;;;;;;;2.58;0.22;;;8.00;99.90;;;;;;5053548;28;20469;-75
2021/01/12 04:27:48;;;;;;;3.45;0.00;;;8.00;99.90;;;;;;5054316;28;20025;-75
2021/01/12 04:30:13;;;;;;;3.40;0.20;;;8.10;99.90;;;;;;5054169;28;20033;-76
2021/01/12 04:32:39;;;;;;;9.38;0.40;;;8.10;99.90;;;;;;5036041;28;20021;-75
2021/01/12 04:35:05;;;;;;;13.15;0.70;;;8.10;99.90;;;;;;5053912;28;20028;-76
2021/01/12 04:37:31;;;;;;;5.55;0.43;;;8.10;99.90;;;;;;5054534;28;20025;-76
2021/01/12 04:39:56;;;;;;;6.32;1.08;;;8.20;99.90;;;;;;5036123;28;20025;-76
2021/01/12 04:42:22;;;;;;;3.75;0.50;;;8.20;99.90;;;;;;5053973;28;20025;-76
2021/01/12 04:44:47;;;;;;;6.45;0.47;;;8.20;99.90;;;;;;5036296;28;20029;-76
2021/01/12 04:47:13;;;;;;;6.18;0.00;;;8.10;99.90;;;;;;5036383;28;20041;-76
2021/01/12 04:49:38;;;;;;;2.22;0.52;;;8.10;99.90;;;;;;5054230;28;20367;-76
2021/01/12 04:52:06;;;;;;;3.90;0.15;;;8.20;99.90;;;;;;5053888;28;20440;-76
2021/01/12 04:54:33;;;;;;;6.25;0.57;;;8.10;99.90;;;;;;5054141;28;20047;-76
2021/01/12 04:56:59;;;;;;;1.58;0.00;;;8.10;99.90;;;;;;5054433;28;20160;-76
2021/01/12 04:59:32;;;;;;;6.32;0.65;;;8.10;99.90;;;;;;5036082;28;20048;-76
2021/01/12 05:01:58;;;;;;;6.03;0.57;;;8.10;99.90;;;;;;5053839;28;20021;-75
2021/01/12 05:04:24;;;;;;;4.43;0.13;;;8.20;99.90;;;;;;5054156;28;20477;-76
2021/01/12 05:06:52;;;;;;;3.97;0.30;;;8.20;99.90;;;;;;5053769;28;20029;-76
2021/01/12 05:09:21;;;;;;;2.40;0.07;;;8.20;99.90;;;;;;5038023;28;20021;-76
2021/01/12 05:11:47;;;;;;;4.60;0.60;;;8.20;99.90;;;;;;5057856;28;20032;-75
2021/01/12 05:14:15;;;;;;;4.60;0.70;;;8.20;99.90;;;;;;5058040;28;20031;-75
2021/01/12 05:16:46;;;;;;;9.32;0.80;;;8.20;99.90;;;;;;5058009;28;20497;-75
2021/01/12 05:19:18;;;;;;;2.30;0.00;;;8.30;99.90;;;;;;5057898;28;20031;-75
2021/01/12 05:21:45;;;;;;;2.92;0.20;;;8.20;99.90;;;;;;5057360;28;20472;-75
2021/01/12 05:24:11;;;;;;;4.85;0.70;;;8.20;99.90;;;;;;5057417;28;20025;-75
2021/01/12 05:26:38;;;;;;;6.07;0.00;;;8.20;99.90;;;;;;5057554;28;20024;-75
2021/01/12 05:29:06;;;;;;;4.38;0.00;;;8.10;99.90;;;;;;5056524;28;20021;-75
2021/01/12 05:31:32;;;;;;;4.03;0.43;;;8.10;99.90;;;;;;5071032;28;20396;-75
2021/01/12 05:34:09;;;;;;;4.25;0.00;;;8.10;99.90;;;;;;5058557;28;20029;-75
2021/01/12 05:36:47;;;;;;;4.20;0.22;;;8.10;99.90;;;;;;5077138;28;20380;-76
2021/01/12 05:39:20;;;;;;;6.18;0.43;;;8.10;99.90;;;;;;5076889;28;20021;-75
2021/01/12 05:41:48;;;;;;;4.47;0.00;;;8.10;99.90;;;;;;5058641;28;20078;-75
2021/01/12 05:44:21;;;;;;;1.23;0.00;;;8.10;99.90;;;;;;5058389;28;20017;-76
2021/01/12 05:46:49;;;;;;;4.22;0.10;;;8.00;99.90;;;;;;5076571;28;20120;-75
2021/01/12 05:49:17;;;;;;;2.30;0.10;;;8.00;99.90;;;;;;5076140;28;20027;-75
2021/01/12 05:51:48;;;;;;;3.83;0.28;;;8.00;99.90;;;;;;5058125;28;20107;-75
2021/01/12 05:54:26;;;;;;;7.18;0.10;;;7.90;99.90;;;;;;5076282;28;20116;-75
2021/01/12 05:56:55;;;;;;;2.58;0.30;;;8.00;99.90;;;;;;5075791;28;20027;-75
2021/01/12 05:59:24;;;;;;;5.00;0.85;;;8.00;99.90;;;;;;5076669;28;20020;-75
2021/01/12 06:01:57;;;;;;;;;;;7.90;99.90;;;;;;5042726;28;20120;-75
2021/01/12 06:04:23;;;;;;;4.75;0.10;;;7.90;99.90;;;;;;5038168;28;20381;-75
2021/01/12 06:06:55;;;;;;;5.90;0.15;;;7.90;99.90;;;;;;5055727;28;20025;-75
2021/01/12 06:09:22;;;;;;;7.68;0.30;;;7.80;99.90;;;;;;5056347;28;20098;-75
2021/01/12 06:11:53;;;;;;;7.50;0.10;;;7.80;99.90;;;;;;5055684;28;20029;-75
2021/01/12 06:14:23;;;;;;;4.25;0.20;;;7.80;99.90;;;;;;5055744;28;20078;-75
2021/01/12 06:16:50;;;;;;;5.35;0.13;;;7.70;99.90;;;;;;5037872;28;20025;-75
2021/01/12 06:19:21;;;;;;;6.18;0.65;;;7.70;99.90;;;;;;5055849;28;20484;-75
2021/01/12 06:21:55;;;;;;;5.30;0.98;;;7.70;99.90;;;;;;5055283;28;20021;-75
2021/01/12 06:24:24;;;;;;;4.35;0.00;;;7.60;99.90;;;;;;5055477;28;20040;-75
2021/01/12 06:26:53;;;;;;;5.00;0.38;;;7.60;99.90;;;;;;5037601;28;20029;-75
2021/01/12 06:29:19;;;;;;;1.23;0.00;;;7.60;99.90;;;;;;5062898;28;20017;-74
2021/01/12 06:31:49;;;;;;;1.10;0.00;;;7.60;99.90;;;;;;5057648;28;20032;-75
2021/01/12 06:34:19;;;;;;;1.98;0.00;;;7.60;99.90;;;;;;5075712;28;20491;-75
2021/01/12 06:36:51;;;;;;;1.92;0.00;;;7.50;99.90;;;;;;5057589;28;20520;-75
2021/01/12 06:39:20;;;;;;;1.60;0.08;;;7.50;99.90;;;;;;5050266;28;20044;-75
2021/01/12 06:41:48;;;;;;;3.10;0.00;;;7.40;99.90;;;;;;5037328;28;20028;-75
2021/01/12 06:44:26;;;;;;;3.03;0.00;;;7.40;99.90;;;;;;5038239;28;20060;-75
2021/01/12 06:46:54;;;;;;;28.63;2.58;;;7.40;99.90;;;;;;5036967;28;20395;-75
2021/01/12 06:49:23;;;;;;;3.80;0.20;;;7.40;99.90;;;;;;5054977;28;20055;-75
2021/01/12 06:51:58;;;;;;;2.38;0.43;;;7.40;99.90;;;;;;5037012;28;20029;-74
2021/01/12 06:54:38;;;;;;;1.25;0.00;;;7.30;99.90;;;;;;5037106;28;20389;-74
2021/01/12 06:57:09;;;;;;;1.75;0.00;;;7.40;99.90;;;;;;5058855;28;20059;-74
2021/01/12 06:59:39;;;;;;;2.63;0.13;;;7.30;99.90;;;;;;5075050;28;20026;-74
2021/01/12 07:02:17;;;;;;;0.50;0.13;;;7.40;99.90;;;;;;5075079;28;20032;-74
2021/01/12 07:05:05;;;;;;;3.00;0.10;;;7.30;99.90;;;;;;5056925;28;20145;-74
2021/01/12 07:07:32;;;;;;;1.13;0.00;;;7.30;99.90;;;;;;5058720;28;20040;-75
2021/01/12 07:10:00;;;;;;;3.33;0.15;;;7.20;99.90;;;;;;5075069;28;20107;-75
2021/01/12 07:12:28;;;;;;;1.13;0.17;;;7.30;99.90;;;;;;5074246;28;20016;-75
2021/01/12 07:14:56;;;;;;;2.50;0.00;;;7.30;99.90;;;;;;5056675;28;20258;-75
2021/01/12 07:17:24;;;;;;;4.38;0.00;;;7.30;99.90;;;;;;5056385;28;20026;-73
2021/01/12 07:20:00;;;;;;;1.00;0.00;;;7.30;99.90;;;;;;5074575;28;20029;-74
2021/01/12 07:22:31;;;;;;;1.40;0.25;;;7.20;99.90;;;;;;5056951;28;20028;-76
2021/01/12 07:24:59;;;;;;;4.57;0.00;;;7.20;99.90;;;;;;5056878;28;20047;-77
2021/01/12 07:27:24;;;;;;;2.63;0.00;;;7.20;99.90;;;;;;5056551;28;20098;-76
2021/01/12 07:29:52;;;;;;;1.38;0.20;;;7.10;99.90;;;;;;5074768;28;20029;-76
2021/01/12 07:32:28;;;;;;;4.03;0.00;;;7.20;99.90;;;;;;5056480;28;20105;-76
2021/01/12 07:34:56;;;;;;;3.83;0.00;;;7.20;99.90;;;;;;5075012;28;20027;-74
2021/01/12 07:37:40;;;;;;;3.35;0.00;;;7.20;99.90;;;;;;5074100;28;20066;-74
2021/01/12 07:40:13;;;;;;;4.03;0.00;;;7.10;99.90;;;;;;5056190;28;20373;-74
2021/01/12 07:42:51;;;;;;;3.95;0.00;;;7.10;99.90;;;;;;5074526;28;20020;-73
2021/01/12 07:45:19;;;;;;;3.88;0.32;;;7.20;99.90;;;;;;5074236;28;20145;-73
2021/01/12 07:47:49;;;;;;;1.10;0.03;;;7.10;99.90;;;;;;5074187;28;20479;-73
2021/01/12 07:50:18;;;;;;;0.40;0.00;;;7.10;99.90;;;;;;5073881;28;20017;-73
2021/01/12 07:52:43;;;;;;;;;;;7.10;99.90;;;;;;5074456;28;20028;-76
2021/01/12 07:55:09;;;;;;;0.20;0.00;;;7.00;99.90;;;;;;5074677;28;19912;-75
2021/01/12 07:57:36;;;;;;;2.40;0.00;;;7.00;99.90;;;;;;5055973;28;20493;-75
2021/01/12 08:00:04;;;;;;;2.20;0.00;;;7.00;99.90;;;;;;5074044;28;20070;-75
2021/01/12 08:02:30;;;;;;;1.65;0.30;;;6.90;99.90;;;;;;5074117;28;20029;-75
2021/01/12 08:04:56;;;;;;;1.10;0.10;;;6.80;99.90;;;;;;5073995;28;20028;-75
2021/01/12 08:07:24;;;;;;;3.92;1.00;;;6.80;99.90;;;;;;5074453;28;20025;-75
2021/01/12 08:09:57;;;;;;;1.48;0.00;;;6.70;99.90;;;;;;5055939;28;20048;-75
2021/01/12 08:12:26;;;;;;;1.95;0.17;;;6.70;99.90;;;;;;5074643;28;20029;-75
2021/01/12 08:14:53;;;;;;;2.10;0.25;;;6.60;99.90;;;;;;5073928;28;20021;-75
2021/01/12 08:17:28;;;;;;;2.40;0.20;;;6.60;99.90;;;;;;5074443;28;20017;-75
2021/01/12 08:19:54;;;;;;;2.00;0.10;;;6.50;99.90;;;;;;5056041;28;20111;-76
2021/01/12 08:22:21;;;;;;;3.92;0.52;;;6.50;99.90;;;;;;5073590;28;20052;-76
2021/01/12 08:24:47;;;;;;;2.72;0.10;;;6.50;99.90;;;;;;5055426;28;20017;-76
2021/01/12 08:27:20;;;;;;;0.30;0.00;;;6.40;99.90;;;;;;5073567;28;20370;-76
2021/01/12 08:29:46;;;;;;;2.05;0.10;;;6.40;99.90;;;;;;5055615;28;20561;-76
2021/01/12 08:32:19;;;;;;;5.03;0.65;;;6.40;99.90;;;;;;5055580;28;20109;-75
2021/01/12 08:34:56;;;;;;;3.50;0.00;;;6.40;99.90;;;;;;5074019;28;20025;-76
2021/01/12 08:37:22;;;;;;;1.55;0.22;;;6.40;99.90;;;;;;5073630;28;20158;-76
2021/01/12 08:39:49;;;;;;;3.05;0.00;;;6.40;99.90;;;;;;5074214;28;20017;-74
2021/01/12 08:42:18;;;;;;;2.65;0.20;;;6.40;99.90;;;;;;5074080;28;20032;-74
2021/01/12 08:44:45;;;;;;;3.03;0.00;;;6.40;99.90;;;;;;5076062;28;20147;-74
2021/01/12 08:47:11;;;;;;;0.10;0.00;;;6.40;99.90;;;;;;5077801;28;20037;-73
2021/01/12 08:49:37;;;;;;;1.30;0.15;;;6.40;99.90;;;;;;5077873;28;20021;-74
2021/01/12 08:52:04;;;;;;;2.40;0.00;;;6.40;99.90;;;;;;5060167;28;20397;-75
2021/01/12 08:54:31;;;;;;;0.20;0.03;;;6.40;99.90;;;;;;5077757;28;20020;-74
2021/01/12 08:57:04;;;;;;;3.70;0.10;;;6.50;99.90;;;;;;5059739;28;20021;-74
2021/01/12 08:59:34;;;;;;;1.52;0.00;;;6.50;99.90;;;;;;5059990;28;20388;-74
2021/01/12 09:02:01;;;;;;;2.70;0.20;;;6.50;99.90;;;;;;5059516;28;20027;-74
2021/01/12 09:04:30;;;;;;;3.15;0.00;;;6.60;99.90;;;;;;5078103;28;20025;-74
2021/01/12 09:07:06;;;;;;;0.80;0.10;;;6.60;99.90;;;;;;5077209;28;20031;-74
2021/01/12 09:09:34;;;;;;;8.25;0.65;;;6.60;99.90;;;;;;5077506;28;20033;-74
2021/01/12 09:12:00;;;;;;;1.05;0.00;;;6.70;99.90;;;;;;5077122;28;20025;-74
2021/01/12 09:14:30;;;;;;;1.70;0.43;;;6.70;99.90;;;;;;5059340;28;20488;-74
2021/01/12 09:17:02;;;;;;;0.28;0.00;;;6.60;99.90;;;;;;5077766;28;20107;-74
2021/01/12 09:19:43;;;;;;;2.33;0.10;;;6.60;99.90;;;;;;5077587;28;20525;-74
2021/01/12 09:22:10;;;;;;;4.43;0.82;;;6.60;99.90;;;;;;5077413;28;20028;-74
2021/01/12 09:24:38;;;;;;;2.95;0.00;;;6.60;99.90;;;;;;5060716;28;20025;-74
2021/01/12 09:27:05;;;;;;;3.30;0.00;;;6.60;99.90;;;;;;5059573;28;20017;-74
2021/01/12 09:29:38;;;;;;;1.25;0.25;;;6.60;99.90;;;;;;5058759;28;20028;-74
2021/01/12 09:32:03;;;;;;;2.97;0.10;;;6.60;99.90;;;;;;5058963;28;20030;-74
2021/01/12 09:34:29;;;;;;;4.07;0.10;;;6.60;99.90;;;;;;5076608;28;20543;-76
2021/01/12 09:36:54;;;;;;;2.72;0.03;;;6.60;99.90;;;;;;5059133;28;20480;-73
2021/01/12 09:39:20;;;;;;;1.95;0.05;;;6.60;99.90;;;;;;5058799;28;20115;-76
2021/01/12 09:41:51;;;;;;;4.05;0.00;;;6.50;99.90;;;;;;5077097;28;20029;-76
2021/01/12 09:44:17;;;;;;;1.55;0.00;;;6.60;99.90;;;;;;5076457;28;20094;-75
2021/01/12 09:46:43;;;;;;;2.88;0.20;;;6.70;99.90;;;;;;5076221;28;20028;-75
2021/01/12 09:49:08;;;;;;;4.85;0.05;;;6.70;99.90;;;;;;5058157;28;20024;-76
2021/01/12 09:51:34;;;;;;;2.42;0.15;;;6.80;99.90;;;;;;5058159;28;20038;-76
2021/01/12 09:53:59;;;;;;;2.55;0.38;;;6.80;99.90;;;;;;5076158;28;20027;-76
2021/01/12 09:56:25;;;;;;;2.53;0.63;;;6.70;99.90;;;;;;5056795;28;20094;-74
2021/01/12 09:58:52;;;;;;;7.43;0.30;;;6.80;99.90;;;;;;5076042;28;20017;-75
2021/01/12 10:01:19;;;;;;;9.02;0.60;;;6.80;99.90;;;;;;5058349;28;20050;-74
2021/01/12 10:03:45;;;;;;;3.92;0.32;;;6.80;99.90;;;;;;5076049;28;20024;-75
2021/01/12 10:06:18;;;;;;;4.97;0.63;;;6.80;99.90;;;;;;5075927;28;20024;-77
2021/01/12 10:08:45;;;;;;;5.53;0.00;;;6.70;99.90;;;;;;5057736;28;20508;-76
2021/01/12 10:11:11;;;;;;;1.23;0.13;;;6.70;99.90;;;;;;5075709;28;20100;-74
2021/01/12 10:13:37;;;;;;;1.58;0.00;;;6.50;99.90;;;;;;5076363;28;20525;-74
2021/01/12 10:16:02;;;;;;;1.35;0.00;;;6.40;99.90;;;;;;5075668;28;20019;-73
2021/01/12 10:18:28;;;;;;;6.57;0.15;;;6.40;99.90;;;;;;5075482;28;20440;-74
2021/01/12 10:20:53;;;;;;;0.93;0.00;;;6.30;99.90;;;;;;5057898;28;20491;-74
2021/01/12 10:23:19;;;;;;;1.55;0.00;;;6.30;99.90;;;;;;5075628;28;20031;-74
2021/01/12 10:25:45;;;;;;;3.40;0.22;;;6.30;99.90;;;;;;5075573;28;20060;-75
2021/01/12 10:28:10;;;;;;;2.67;0.00;;;6.30;99.90;;;;;;5057669;28;20024;-74
2021/01/12 10:30:36;;;;;;;4.25;0.20;;;6.30;99.90;;;;;;5075822;28;20025;-74
2021/01/12 10:33:02;;;;;;;4.15;0.38;;;6.20;99.90;;;;;;5075518;28;20036;-74
2021/01/12 10:35:27;;;;;;;1.52;0.00;;;6.30;99.90;;;;;;5075788;28;20456;-74
2021/01/12 10:37:53;;;;;;;3.33;0.00;;;6.30;99.90;;;;;;5075212;28;20104;-74
2021/01/12 10:40:21;;;;;;;4.68;0.35;;;6.30;99.90;;;;;;5075286;28;20104;-74
2021/01/12 10:42:47;;;;;;;2.10;0.00;;;6.30;99.90;;;;;;5075111;28;20099;-75
2021/01/12 10:45:14;;;;;;;6.95;0.75;;;6.50;99.90;;;;;;5057214;28;20073;-75
2021/01/12 10:47:45;;;;;;;3.30;0.10;;;6.60;99.90;;;;;;5075719;28;20473;-76
2021/01/12 10:50:16;;;;;;;2.90;0.00;;;6.70;99.90;;;;;;5076180;28;20353;-76
2021/01/12 10:52:42;;;;;;;1.70;0.00;;;6.80;99.90;;;;;;5161506;22;20487;-74
2021/01/12 10:55:09;;;;;;;1.73;0.20;;;7.00;99.90;;;;;;5116846;28;20015;-74
2021/01/12 10:57:35;;;;;;;3.78;0.20;;;7.20;99.90;;;;;;5116300;28;20107;-74
2021/01/12 11:00:02;;;;;;;4.38;0.00;;;7.30;99.90;;;;;;5115926;28;20048;-74
2021/01/12 11:02:34;;;;;;;2.67;0.32;;;7.20;99.90;;;;;;5116514;28;20099;-74
2021/01/12 11:04:59;;;;;;;3.33;0.00;;;7.10;99.90;;;;;;5097819;28;20035;-74
2021/01/12 11:07:25;;;;;;;3.00;0.00;;;6.90;99.90;;;;;;5097812;28;20028;-74
2021/01/12 11:09:50;;;;;;;4.15;0.00;;;6.80;99.90;;;;;;5115818;28;20432;-74
2021/01/12 11:12:17;;;;;;;2.33;0.00;;;6.80;99.90;;;;;;5097542;28;20073;-74
2021/01/12 11:14:43;;;;;;;6.70;0.20;;;6.90;99.90;;;;;;5115388;28;20087;-74
2021/01/12 11:17:12;;;;;;;4.55;0.00;;;6.90;99.90;;;;;;5115008;28;20046;-74
2021/01/12 11:19:38;;;;;;;2.65;0.47;;;6.90;99.90;;;;;;5115559;28;20019;-74
2021/01/12 11:22:06;;;;;;;2.38;0.10;;;7.00;99.90;;;;;;5115643;28;20102;-74
2021/01/12 11:24:32;;;;;;;7.97;0.50;;;7.00;99.60;;;;;;5097576;28;20433;-74
2021/01/12 11:26:58;;;;;;;6.32;0.75;;;7.10;99.90;;;;;;5097036;28;20024;-74
2021/01/12 11:29:23;;;;;;;4.60;0.03;;;7.10;96.80;;;;;;5115646;28;20052;-74
2021/01/12 11:31:49;;;;;;;5.43;0.00;;;7.20;95.20;;;;;;5115374;28;20076;-74
2021/01/12 11:34:16;;;;;;;3.33;0.10;;;7.20;92.50;;;;;;5097214;28;20424;-74
2021/01/12 11:36:44;;;;;;;1.98;0.00;;;7.20;92.40;;;;;;5097806;28;20096;-73
2021/01/12 11:39:12;;;;;;;3.80;0.30;;;7.20;90.40;;;;;;5115260;28;20019;-74
2021/01/12 11:41:49;;;;;;;7.43;0.52;;;7.30;90.80;;;;;;5115275;28;20559;-74
2021/01/12 11:44:15;;;;;;;4.20;0.05;;;7.40;90.70;;;;;;5114482;28;20019;-77
2021/01/12 11:46:41;;;;;;;7.18;0.35;;;7.50;88.50;;;;;;5115465;28;20100;-78
2021/01/12 11:49:07;;;;;;;3.00;0.00;;;7.60;87.20;;;;;;5097892;28;20100;-75
2021/01/12 11:51:41;;;;;;;8.80;0.65;;;7.50;88.00;;;;;;5115021;28;20023;-75
2021/01/12 11:54:07;;;;;;;3.97;0.00;;;7.40;84.50;;;;;;5097099;28;20031;-75
2021/01/12 11:56:33;;;;;;;4.40;0.28;;;7.60;82.40;;;;;;5097045;28;20364;-75
2021/01/12 11:58:59;;;;;;;1.98;0.00;;;7.30;81.40;;;;;;5096695;28;20019;-75
2021/01/12 12:01:25;;;;;;;1.85;0.05;;;7.30;82.10;;;;;;5096615;28;20077;-75
2021/01/12 12:03:54;;;;;;;4.15;0.22;;;7.30;84.20;;;;;;5114914;28;20069;-75
2021/01/12 12:06:19;;;;;;;3.10;0.20;;;7.40;81.10;;;;;;5114754;28;20028;-75
2021/01/12 12:08:45;;;;;;;3.60;0.00;;;7.30;78.90;;;;;;5096193;28;20137;-75
2021/01/12 12:11:11;;;;;;;2.83;0.05;;;7.40;77.40;;;;;;5114553;28;20479;-75
2021/01/12 12:13:40;;;;;;;0.88;0.00;;;7.40;78.80;;;;;;5114911;28;20094;-75
2021/01/12 12:16:13;;;;;;;3.92;0.10;;;7.50;79.60;;;;;;5114939;28;20446;-76
2021/01/12 12:18:40;;;;;;;4.28;0.00;;;7.50;78.70;;;;;;5113436;28;20511;-76
2021/01/12 12:21:11;;;;;;;1.85;0.00;;;7.60;80.00;;;;;;5114803;28;20035;-76
2021/01/12 12:23:37;;;;;;;3.33;0.35;;;7.70;82.30;;;;;;5115635;28;20102;-77
2021/01/12 12:26:08;;;;;;;5.72;0.00;;;7.90;80.90;;;;;;5115156;28;20066;-78
2021/01/12 12:28:34;;;;;;;2.42;0.00;;;8.10;80.20;;;;;;5096493;28;20020;-78
2021/01/12 12:30:59;;;;;;;4.40;0.10;;;8.20;79.00;;;;;;5114359;28;20030;-76
2021/01/12 12:33:25;;;;;;;5.97;0.05;;;8.30;75.70;;;;;;5115207;28;20047;-76
2021/01/12 12:35:51;;;;;;;4.22;0.00;;;8.30;73.70;;;;;;5114909;28;20020;-76
2021/01/12 12:38:26;;;;;;;1.90;0.00;;;8.30;74.90;;;;;;5117381;27;20111;-80
2021/01/12 12:40:51;;;;;;;0.70;0.00;;;8.20;73.50;;;;;;5096215;28;20492;-74
2021/01/12 12:43:17;;;;;;;6.90;0.60;;;8.30;73.70;;;;;;5096728;28;20054;-74
2021/01/12 12:45:43;;;;;;;1.85;0.00;;;8.20;71.90;;;;;;5096671;28;20019;-74
2021/01/12 12:48:11;;;;;;;4.10;0.38;;;8.20;73.00;;;;;;5115070;28;20020;-74
2021/01/12 12:50:37;;;;;;;3.72;0.00;;;8.20;71.90;;;;;;5096832;28;20020;-75
2021/01/12 12:53:02;;;;;;;4.00;0.00;;;8.10;71.20;;;;;;5114480;28;20468;-76
2021/01/12 12:55:28;;;;;;;1.75;0.00;;;8.10;73.10;;;;;;5114831;28;20487;-75
2021/01/12 12:57:54;;;;;;;1.98;0.00;;;8.20;72.70;;;;;;5113929;28;20088;-75
2021/01/12 13:00:20;;;;;;;2.67;0.10;;;8.30;73.70;;;;;;5113760;28;20490;-74